sensor_id;sensor_type;location;lat;lon;timestamp;pressure;altitude;pressure_sealevel;temperature;humidity
17649;BME280;8943;51.110;-4.158;2023-08-07T00:00:35;101760.06;;;20.78;50.42
17649;BME280;8943;51.110;-4.158;2023-08-07T00:03:03;101762.09;;;20.76;50.40
17649;BME280;8943;51.110;-4.158;2023-08-07T00:05:36;101770.06;;;20.78;50.54
17649;BME280;8943;51.110;-4.158;2023-08-07T00:08:05;101771.78;;;20.79;50.42
17649;BME280;8943;51.110;-4.158;2023-08-07T00:10:33;101763.56;;;20.71;50.78
17649;BME280;8943;51.110;-4.158;2023-08-07T00:13:02;101759.44;;;20.67;50.53
17649;BME280;8943;51.110;-4.158;2023-08-07T00:15:30;101762.00;;;20.68;50.75
17649;BME280;8943;51.110;-4.158;2023-08-07T00:18:00;101763.00;;;20.67;50.65
17649;BME280;8943;51.110;-4.158;2023-08-07T00:20:29;101760.06;;;20.61;51.03
17649;BME280;8943;51.110;-4.158;2023-08-07T00:22:59;101753.09;;;20.58;50.88
17649;BME280;8943;51.110;-4.158;2023-08-07T00:25:28;101758.50;;;20.58;51.05
17649;BME280;8943;51.110;-4.158;2023-08-07T00:27:56;101757.09;;;20.54;51.18
17649;BME280;8943;51.110;-4.158;2023-08-07T00:30:25;101768.25;;;20.51;51.09
17649;BME280;8943;51.110;-4.158;2023-08-07T00:32:53;101761.69;;;20.44;51.33
17649;BME280;8943;51.110;-4.158;2023-08-07T00:35:21;101766.97;;;20.45;51.23
17649;BME280;8943;51.110;-4.158;2023-08-07T00:37:50;101768.28;;;20.41;51.48
17649;BME280;8943;51.110;-4.158;2023-08-07T00:40:19;101768.41;;;20.40;51.35
17649;BME280;8943;51.110;-4.158;2023-08-07T00:42:47;101767.03;;;20.36;51.60
17649;BME280;8943;51.110;-4.158;2023-08-07T00:45:16;101758.66;;;20.29;51.58
17649;BME280;8943;51.110;-4.158;2023-08-07T00:47:45;101745.28;;;20.27;51.59
17649;BME280;8943;51.110;-4.158;2023-08-07T00:50:16;101743.59;;;20.26;51.63
17649;BME280;8943;51.110;-4.158;2023-08-07T00:52:45;101749.44;;;20.22;51.87
17649;BME280;8943;51.110;-4.158;2023-08-07T00:55:13;101746.03;;;20.20;51.67
17649;BME280;8943;51.110;-4.158;2023-08-07T00:57:43;101747.19;;;20.17;51.91
17649;BME280;8943;51.110;-4.158;2023-08-07T01:00:15;101749.03;;;20.17;52.06
17649;BME280;8943;51.110;-4.158;2023-08-07T01:02:44;101743.06;;;20.13;51.85
17649;BME280;8943;51.110;-4.158;2023-08-07T01:05:12;101745.09;;;20.11;51.92
17649;BME280;8943;51.110;-4.158;2023-08-07T01:07:41;101752.50;;;20.09;51.81
17649;BME280;8943;51.110;-4.158;2023-08-07T01:10:09;101755.50;;;20.06;52.07
17649;BME280;8943;51.110;-4.158;2023-08-07T01:12:45;101749.38;;;20.04;52.25
17649;BME280;8943;51.110;-4.158;2023-08-07T01:15:22;101750.56;;;20.01;52.05
17649;BME280;8943;51.110;-4.158;2023-08-07T01:17:53;101748.28;;;19.97;51.96
17649;BME280;8943;51.110;-4.158;2023-08-07T01:20:23;101742.16;;;19.95;52.20
17649;BME280;8943;51.110;-4.158;2023-08-07T01:22:52;101746.88;;;19.93;52.11
17649;BME280;8943;51.110;-4.158;2023-08-07T01:25:21;101757.69;;;19.93;52.19
17649;BME280;8943;51.110;-4.158;2023-08-07T01:27:58;101755.59;;;19.87;52.40
17649;BME280;8943;51.110;-4.158;2023-08-07T01:30:33;101749.19;;;19.88;52.11
17649;BME280;8943;51.110;-4.158;2023-08-07T01:33:09;101745.22;;;19.82;52.13
17649;BME280;8943;51.110;-4.158;2023-08-07T01:35:41;101742.63;;;19.80;52.13
17649;BME280;8943;51.110;-4.158;2023-08-07T01:38:13;101738.69;;;19.75;52.02
17649;BME280;8943;51.110;-4.158;2023-08-07T01:40:43;101740.69;;;19.73;52.24
17649;BME280;8943;51.110;-4.158;2023-08-07T01:43:12;101739.44;;;19.67;52.26
17649;BME280;8943;51.110;-4.158;2023-08-07T01:45:41;101740.72;;;19.63;52.49
17649;BME280;8943;51.110;-4.158;2023-08-07T01:48:09;101742.97;;;19.58;52.27
17649;BME280;8943;51.110;-4.158;2023-08-07T01:50:38;101734.03;;;19.48;52.36
17649;BME280;8943;51.110;-4.158;2023-08-07T01:53:07;101741.31;;;19.38;52.41
17649;BME280;8943;51.110;-4.158;2023-08-07T01:55:36;101745.59;;;19.30;52.28
17649;BME280;8943;51.110;-4.158;2023-08-07T01:58:04;101742.03;;;19.20;52.20
17649;BME280;8943;51.110;-4.158;2023-08-07T02:00:33;101735.22;;;19.16;52.61
17649;BME280;8943;51.110;-4.158;2023-08-07T02:03:01;101732.81;;;19.13;52.70
17649;BME280;8943;51.110;-4.158;2023-08-07T02:05:29;101734.22;;;19.17;52.67
17649;BME280;8943;51.110;-4.158;2023-08-07T02:07:57;101738.94;;;19.15;52.58
17649;BME280;8943;51.110;-4.158;2023-08-07T02:10:26;101736.50;;;19.12;52.76
17649;BME280;8943;51.110;-4.158;2023-08-07T02:12:57;101734.22;;;19.08;52.67
17649;BME280;8943;51.110;-4.158;2023-08-07T02:15:25;101725.84;;;19.01;52.39
17649;BME280;8943;51.110;-4.158;2023-08-07T02:17:53;101728.56;;;18.91;52.55
17649;BME280;8943;51.110;-4.158;2023-08-07T02:20:22;101729.97;;;18.86;52.93
17649;BME280;8943;51.110;-4.158;2023-08-07T02:22:50;101728.56;;;18.72;52.72
17649;BME280;8943;51.110;-4.158;2023-08-07T02:25:19;101728.94;;;18.58;52.70
17649;BME280;8943;51.110;-4.158;2023-08-07T02:27:48;101735.31;;;18.47;52.89
17649;BME280;8943;51.110;-4.158;2023-08-07T02:30:17;101726.63;;;18.34;52.91
17649;BME280;8943;51.110;-4.158;2023-08-07T02:32:45;101730.28;;;18.23;52.98
17649;BME280;8943;51.110;-4.158;2023-08-07T02:35:14;101734.38;;;18.17;53.00
17649;BME280;8943;51.110;-4.158;2023-08-07T02:37:42;101734.09;;;18.11;52.98
17649;BME280;8943;51.110;-4.158;2023-08-07T02:40:11;101745.69;;;18.01;52.92
17649;BME280;8943;51.110;-4.158;2023-08-07T02:42:42;101737.44;;;17.93;53.26
17649;BME280;8943;51.110;-4.158;2023-08-07T02:45:10;101734.84;;;17.82;53.33
17649;BME280;8943;51.110;-4.158;2023-08-07T02:47:40;101725.72;;;17.73;53.16
17649;BME280;8943;51.110;-4.158;2023-08-07T02:50:08;101725.72;;;17.73;53.19
17649;BME280;8943;51.110;-4.158;2023-08-07T02:52:37;101724.84;;;17.73;53.41
17649;BME280;8943;51.110;-4.158;2023-08-07T02:55:05;101723.72;;;17.75;53.55
17649;BME280;8943;51.110;-4.158;2023-08-07T02:57:34;101719.56;;;17.71;53.45
17649;BME280;8943;51.110;-4.158;2023-08-07T03:00:03;101723.97;;;17.72;53.53
17649;BME280;8943;51.110;-4.158;2023-08-07T03:02:31;101718.00;;;17.69;53.03
17649;BME280;8943;51.110;-4.158;2023-08-07T03:05:01;101719.09;;;17.66;53.48
17649;BME280;8943;51.110;-4.158;2023-08-07T03:07:29;101719.38;;;17.63;53.49
17649;BME280;8943;51.110;-4.158;2023-08-07T03:09:58;101717.41;;;17.65;53.58
17649;BME280;8943;51.110;-4.158;2023-08-07T03:12:26;101721.22;;;17.63;53.60
17649;BME280;8943;51.110;-4.158;2023-08-07T03:14:54;101719.94;;;17.57;53.58
17649;BME280;8943;51.110;-4.158;2023-08-07T03:17:23;101715.03;;;17.51;53.57
17649;BME280;8943;51.110;-4.158;2023-08-07T03:19:51;101712.63;;;17.48;53.54
17649;BME280;8943;51.110;-4.158;2023-08-07T03:22:21;101715.00;;;17.41;53.36
17649;BME280;8943;51.110;-4.158;2023-08-07T03:24:49;101713.97;;;17.33;53.80
17649;BME280;8943;51.110;-4.158;2023-08-07T03:27:17;101715.47;;;17.25;54.03
17649;BME280;8943;51.110;-4.158;2023-08-07T03:29:45;101713.31;;;17.19;53.95
17649;BME280;8943;51.110;-4.158;2023-08-07T03:32:14;101716.00;;;17.19;53.92
17649;BME280;8943;51.110;-4.158;2023-08-07T03:34:42;101706.63;;;17.14;53.76
17649;BME280;8943;51.110;-4.158;2023-08-07T03:37:10;101705.75;;;17.13;53.91
17649;BME280;8943;51.110;-4.158;2023-08-07T03:39:40;101710.16;;;17.14;53.97
17649;BME280;8943;51.110;-4.158;2023-08-07T03:42:10;101708.19;;;17.16;53.67
17649;BME280;8943;51.110;-4.158;2023-08-07T03:44:38;101699.84;;;17.19;53.38
17649;BME280;8943;51.110;-4.158;2023-08-07T03:47:06;101710.88;;;17.16;53.55
17649;BME280;8943;51.110;-4.158;2023-08-07T03:49:35;101702.06;;;17.14;53.70
17649;BME280;8943;51.110;-4.158;2023-08-07T03:52:03;101698.66;;;17.12;53.83
17649;BME280;8943;51.110;-4.158;2023-08-07T03:54:32;101701.63;;;17.09;53.84
17649;BME280;8943;51.110;-4.158;2023-08-07T03:57:01;101700.63;;;17.10;53.88
17649;BME280;8943;51.110;-4.158;2023-08-07T03:59:30;101698.78;;;17.11;53.86
17649;BME280;8943;51.110;-4.158;2023-08-07T04:01:58;101696.34;;;17.08;53.82
17649;BME280;8943;51.110;-4.158;2023-08-07T04:04:26;101687.41;;;17.07;53.69
17649;BME280;8943;51.110;-4.158;2023-08-07T04:06:54;101680.19;;;17.08;53.79
17649;BME280;8943;51.110;-4.158;2023-08-07T04:09:23;101673.25;;;17.05;53.89
17649;BME280;8943;51.110;-4.158;2023-08-07T04:11:51;101684.00;;;17.05;53.77
17649;BME280;8943;51.110;-4.158;2023-08-07T04:14:21;101690.25;;;17.06;53.92
17649;BME280;8943;51.110;-4.158;2023-08-07T04:16:49;101691.25;;;17.05;53.81
17649;BME280;8943;51.110;-4.158;2023-08-07T04:19:17;101686.09;;;17.02;53.77
17649;BME280;8943;51.110;-4.158;2023-08-07T04:21:45;101699.72;;;17.00;53.86
17649;BME280;8943;51.110;-4.158;2023-08-07T04:24:14;101701.41;;;17.01;53.67
17649;BME280;8943;51.110;-4.158;2023-08-07T04:26:42;101702.16;;;17.03;53.90
17649;BME280;8943;51.110;-4.158;2023-08-07T04:29:10;101704.84;;;17.03;54.00
17649;BME280;8943;51.110;-4.158;2023-08-07T04:31:40;101701.88;;;17.06;54.05
17649;BME280;8943;51.110;-4.158;2023-08-07T04:34:08;101708.31;;;17.15;54.06
17649;BME280;8943;51.110;-4.158;2023-08-07T04:36:36;101706.09;;;17.20;54.17
17649;BME280;8943;51.110;-4.158;2023-08-07T04:39:05;101710.94;;;17.26;54.20
17649;BME280;8943;51.110;-4.158;2023-08-07T04:41:37;101707.59;;;17.34;53.86
17649;BME280;8943;51.110;-4.158;2023-08-07T04:44:05;101714.03;;;17.42;54.02
17649;BME280;8943;51.110;-4.158;2023-08-07T04:46:33;101716.28;;;17.47;54.29
17649;BME280;8943;51.110;-4.158;2023-08-07T04:49:03;101711.84;;;17.57;54.12
17649;BME280;8943;51.110;-4.158;2023-08-07T04:51:32;101719.97;;;17.67;54.25
17649;BME280;8943;51.110;-4.158;2023-08-07T04:54:01;101728.50;;;17.72;54.04
17649;BME280;8943;51.110;-4.158;2023-08-07T04:56:31;101716.63;;;17.74;53.97
17649;BME280;8943;51.110;-4.158;2023-08-07T04:58:59;101726.00;;;17.80;53.98
17649;BME280;8943;51.110;-4.158;2023-08-07T05:01:29;101715.97;;;17.82;53.87
17649;BME280;8943;51.110;-4.158;2023-08-07T05:03:57;101719.22;;;17.86;53.66
17649;BME280;8943;51.110;-4.158;2023-08-07T05:06:27;101719.94;;;17.88;53.92
17649;BME280;8943;51.110;-4.158;2023-08-07T05:08:56;101721.50;;;17.90;53.53
17649;BME280;8943;51.110;-4.158;2023-08-07T05:11:24;101722.66;;;17.88;53.66
17649;BME280;8943;51.110;-4.158;2023-08-07T05:13:52;101729.75;;;17.89;53.58
17649;BME280;8943;51.110;-4.158;2023-08-07T05:16:21;101723.19;;;17.82;53.52
17649;BME280;8943;51.110;-4.158;2023-08-07T05:18:50;101721.34;;;17.82;53.49
17649;BME280;8943;51.110;-4.158;2023-08-07T05:21:18;101722.00;;;17.74;53.46
17649;BME280;8943;51.110;-4.158;2023-08-07T05:23:49;101718.84;;;17.69;53.38
17649;BME280;8943;51.110;-4.158;2023-08-07T05:26:20;101715.44;;;17.67;53.53
17649;BME280;8943;51.110;-4.158;2023-08-07T05:28:48;101717.53;;;17.64;53.66
17649;BME280;8943;51.110;-4.158;2023-08-07T05:31:24;101726.72;;;17.61;53.47
17649;BME280;8943;51.110;-4.158;2023-08-07T05:33:55;101734.38;;;17.56;53.62
17649;BME280;8943;51.110;-4.158;2023-08-07T05:36:24;101722.88;;;17.54;53.57
17649;BME280;8943;51.110;-4.158;2023-08-07T05:38:54;101721.88;;;17.55;53.71
17649;BME280;8943;51.110;-4.158;2023-08-07T05:41:22;101718.19;;;17.56;53.65
17649;BME280;8943;51.110;-4.158;2023-08-07T05:43:51;101722.34;;;17.60;53.49
17649;BME280;8943;51.110;-4.158;2023-08-07T05:46:20;101711.69;;;17.59;53.73
17649;BME280;8943;51.110;-4.158;2023-08-07T05:48:49;101718.53;;;17.63;53.75
17649;BME280;8943;51.110;-4.158;2023-08-07T05:51:18;101718.25;;;17.66;54.08
17649;BME280;8943;51.110;-4.158;2023-08-07T05:53:46;101735.63;;;17.73;53.82
17649;BME280;8943;51.110;-4.158;2023-08-07T05:56:17;101721.75;;;17.78;53.91
17649;BME280;8943;51.110;-4.158;2023-08-07T05:58:45;101724.59;;;17.86;54.16
17649;BME280;8943;51.110;-4.158;2023-08-07T06:01:14;101725.78;;;17.93;53.79
17649;BME280;8943;51.110;-4.158;2023-08-07T06:03:44;101735.75;;;18.02;53.93
17649;BME280;8943;51.110;-4.158;2023-08-07T06:06:13;101731.50;;;18.09;53.69
17649;BME280;8943;51.110;-4.158;2023-08-07T06:08:44;101732.69;;;18.16;53.68
17649;BME280;8943;51.110;-4.158;2023-08-07T06:11:13;101733.25;;;18.20;53.70
17649;BME280;8943;51.110;-4.158;2023-08-07T06:13:44;101738.97;;;18.26;53.50
17649;BME280;8943;51.110;-4.158;2023-08-07T06:16:13;101732.31;;;18.31;53.42
17649;BME280;8943;51.110;-4.158;2023-08-07T06:18:42;101724.34;;;18.39;53.82
17649;BME280;8943;51.110;-4.158;2023-08-07T06:21:10;101724.78;;;18.44;53.69
17649;BME280;8943;51.110;-4.158;2023-08-07T06:23:39;101717.13;;;18.49;53.81
17649;BME280;8943;51.110;-4.158;2023-08-07T06:26:37;101726.38;;;18.56;53.82
17649;BME280;8943;51.110;-4.158;2023-08-07T06:29:35;101726.81;;;18.61;53.66
17649;BME280;8943;51.110;-4.158;2023-08-07T06:32:04;101730.78;;;18.67;53.87
17649;BME280;8943;51.110;-4.158;2023-08-07T06:34:32;101721.31;;;18.72;53.64
17649;BME280;8943;51.110;-4.158;2023-08-07T06:37:06;101724.16;;;18.81;53.56
17649;BME280;8943;51.110;-4.158;2023-08-07T06:39:36;101722.56;;;18.88;53.33
17649;BME280;8943;51.110;-4.158;2023-08-07T06:42:05;101724.72;;;18.94;53.25
17649;BME280;8943;51.110;-4.158;2023-08-07T06:44:36;101715.19;;;18.99;53.40
17649;BME280;8943;51.110;-4.158;2023-08-07T06:47:07;101711.50;;;19.00;53.69
17649;BME280;8943;51.110;-4.158;2023-08-07T06:49:37;101718.16;;;19.06;53.63
17649;BME280;8943;51.110;-4.158;2023-08-07T06:52:07;101721.72;;;19.16;53.70
17649;BME280;8943;51.110;-4.158;2023-08-07T06:54:37;101738.75;;;19.26;53.74
17649;BME280;8943;51.110;-4.158;2023-08-07T06:59:49;101739.16;;;19.41;53.83
17649;BME280;8943;51.110;-4.158;2023-08-07T07:02:18;101726.63;;;19.50;53.85
17649;BME280;8943;51.110;-4.158;2023-08-07T07:04:49;101725.63;;;19.61;53.65
17649;BME280;8943;51.110;-4.158;2023-08-07T07:07:19;101733.88;;;19.69;53.60
17649;BME280;8943;51.110;-4.158;2023-08-07T07:09:48;101736.81;;;19.75;53.45
17649;BME280;8943;51.110;-4.158;2023-08-07T07:12:17;101745.22;;;19.82;53.49
17649;BME280;8943;51.110;-4.158;2023-08-07T07:14:48;101736.94;;;19.84;53.47
17649;BME280;8943;51.110;-4.158;2023-08-07T07:17:21;101748.31;;;19.87;53.45
17649;BME280;8943;51.110;-4.158;2023-08-07T07:20:18;101740.06;;;19.89;53.78
17649;BME280;8943;51.110;-4.158;2023-08-07T07:22:48;101741.31;;;19.94;53.75
17649;BME280;8943;51.110;-4.158;2023-08-07T07:25:26;101748.28;;;19.97;53.62
17649;BME280;8943;51.110;-4.158;2023-08-07T07:27:54;101750.22;;;20.04;53.69
17649;BME280;8943;51.110;-4.158;2023-08-07T07:30:29;101736.41;;;20.08;53.83
17649;BME280;8943;51.110;-4.158;2023-08-07T07:33:05;101734.66;;;20.16;54.00
17649;BME280;8943;51.110;-4.158;2023-08-07T07:35:37;101731.75;;;20.27;54.20
17649;BME280;8943;51.110;-4.158;2023-08-07T07:38:06;101742.75;;;20.44;54.02
17649;BME280;8943;51.110;-4.158;2023-08-07T07:40:34;101768.72;;;20.64;54.15
17649;BME280;8943;51.110;-4.158;2023-08-07T07:43:03;101767.22;;;20.79;53.94
17649;BME280;8943;51.110;-4.158;2023-08-07T07:46:08;101765.13;;;20.91;54.08
17649;BME280;8943;51.110;-4.158;2023-08-07T07:48:49;101763.09;;;20.93;52.94
17649;BME280;8943;51.110;-4.158;2023-08-07T07:57:32;101768.75;;;21.00;51.92
17649;BME280;8943;51.110;-4.158;2023-08-07T08:32:38;101766.16;;;21.52;47.81
17649;BME280;8943;51.110;-4.158;2023-08-07T09:23:58;101782.16;;;22.15;41.97
17649;BME280;8943;51.110;-4.158;2023-08-07T09:38:32;101795.72;;;22.57;42.36
17649;BME280;8943;51.110;-4.158;2023-08-07T09:45:26;101800.66;;;22.62;40.30
17649;BME280;8943;51.110;-4.158;2023-08-07T13:42:08;101708.28;;;23.60;41.04
17649;BME280;8943;51.110;-4.158;2023-08-07T13:49:59;101712.50;;;24.18;39.43
17649;BME280;8943;51.110;-4.158;2023-08-07T18:23:58;101577.56;;;22.16;41.92
17649;BME280;8943;51.110;-4.158;2023-08-07T21:20:58;101510.66;;;20.10;46.97
17649;BME280;8943;51.110;-4.158;2023-08-07T21:24:00;101506.66;;;20.14;46.75
17649;BME280;8943;51.110;-4.158;2023-08-07T21:26:51;101499.75;;;20.20;46.82
17649;BME280;8943;51.110;-4.158;2023-08-07T21:29:49;101490.50;;;20.22;47.01
17649;BME280;8943;51.110;-4.158;2023-08-07T21:32:48;101503.84;;;20.24;46.93
17649;BME280;8943;51.110;-4.158;2023-08-07T21:38:24;101494.13;;;20.13;47.39
17649;BME280;8943;51.110;-4.158;2023-08-07T21:40:53;101494.44;;;20.10;47.52
17649;BME280;8943;51.110;-4.158;2023-08-07T21:43:50;101501.56;;;20.11;47.44
17649;BME280;8943;51.110;-4.158;2023-08-07T21:46:46;101490.03;;;20.09;47.75
17649;BME280;8943;51.110;-4.158;2023-08-07T21:49:32;101482.75;;;20.10;47.73
17649;BME280;8943;51.110;-4.158;2023-08-07T21:52:07;101490.41;;;20.14;47.74
17649;BME280;8943;51.110;-4.158;2023-08-07T21:54:42;101488.09;;;20.19;47.72
17649;BME280;8943;51.110;-4.158;2023-08-07T21:57:11;101486.22;;;20.20;47.90
17649;BME280;8943;51.110;-4.158;2023-08-07T21:59:42;101484.78;;;20.25;47.79
17649;BME280;8943;51.110;-4.158;2023-08-07T22:02:14;101487.47;;;20.25;47.89
17649;BME280;8943;51.110;-4.158;2023-08-07T22:04:57;101475.16;;;20.31;48.14
17649;BME280;8943;51.110;-4.158;2023-08-07T22:07:41;101476.00;;;20.31;48.05
17649;BME280;8943;51.110;-4.158;2023-08-07T22:10:44;101472.00;;;20.36;48.09
17649;BME280;8943;51.110;-4.158;2023-08-07T22:13:22;101480.47;;;20.41;47.95
17649;BME280;8943;51.110;-4.158;2023-08-07T22:15:52;101480.16;;;20.44;48.17
17649;BME280;8943;51.110;-4.158;2023-08-07T22:19:05;101471.88;;;20.45;48.13
17649;BME280;8943;51.110;-4.158;2023-08-07T22:21:51;101469.59;;;20.50;48.26
17649;BME280;8943;51.110;-4.158;2023-08-07T22:24:34;101473.13;;;20.51;48.46
17649;BME280;8943;51.110;-4.158;2023-08-07T22:27:21;101461.47;;;20.50;48.52
17649;BME280;8943;51.110;-4.158;2023-08-07T22:29:50;101462.31;;;20.51;48.42
17649;BME280;8943;51.110;-4.158;2023-08-07T22:32:19;101456.19;;;20.49;48.45
17649;BME280;8943;51.110;-4.158;2023-08-07T22:34:48;101463.63;;;20.47;48.44
17649;BME280;8943;51.110;-4.158;2023-08-07T22:37:34;101458.22;;;20.47;48.63
17649;BME280;8943;51.110;-4.158;2023-08-07T22:40:04;101457.66;;;20.43;48.86
17649;BME280;8943;51.110;-4.158;2023-08-07T22:42:37;101457.81;;;20.42;49.12
17649;BME280;8943;51.110;-4.158;2023-08-07T22:45:07;101453.41;;;20.41;49.21
17649;BME280;8943;51.110;-4.158;2023-08-07T22:47:37;101459.81;;;20.40;49.45
17649;BME280;8943;51.110;-4.158;2023-08-07T22:50:08;101452.34;;;20.33;49.59
17649;BME280;8943;51.110;-4.158;2023-08-07T22:52:36;101457.44;;;20.37;49.87
17649;BME280;8943;51.110;-4.158;2023-08-07T22:55:05;101446.28;;;20.40;49.79
17649;BME280;8943;51.110;-4.158;2023-08-07T22:57:34;101444.59;;;20.39;49.68
17649;BME280;8943;51.110;-4.158;2023-08-07T23:00:06;101442.25;;;20.44;49.74
17649;BME280;8943;51.110;-4.158;2023-08-07T23:02:37;101433.28;;;20.43;49.98
17649;BME280;8943;51.110;-4.158;2023-08-07T23:05:06;101434.84;;;20.46;49.85
17649;BME280;8943;51.110;-4.158;2023-08-07T23:07:35;101433.84;;;20.47;50.04
17649;BME280;8943;51.110;-4.158;2023-08-07T23:10:05;101427.25;;;20.49;50.20
17649;BME280;8943;51.110;-4.158;2023-08-07T23:12:35;101428.81;;;20.52;49.98
17649;BME280;8943;51.110;-4.158;2023-08-07T23:15:07;101419.66;;;20.53;49.97
17649;BME280;8943;51.110;-4.158;2023-08-07T23:17:35;101425.44;;;20.50;49.82
17649;BME280;8943;51.110;-4.158;2023-08-07T23:20:05;101434.53;;;20.49;49.93
17649;BME280;8943;51.110;-4.158;2023-08-07T23:22:35;101430.97;;;20.48;49.83
17649;BME280;8943;51.110;-4.158;2023-08-07T23:25:04;101430.91;;;20.40;50.11
17649;BME280;8943;51.110;-4.158;2023-08-07T23:27:33;101439.81;;;20.32;50.01
17649;BME280;8943;51.110;-4.158;2023-08-07T23:30:02;101431.31;;;20.27;50.13
17649;BME280;8943;51.110;-4.158;2023-08-07T23:32:33;101428.06;;;20.24;50.26
17649;BME280;8943;51.110;-4.158;2023-08-07T23:35:01;101424.84;;;20.20;50.46
17649;BME280;8943;51.110;-4.158;2023-08-07T23:37:30;101420.91;;;20.15;50.48
17649;BME280;8943;51.110;-4.158;2023-08-07T23:39:58;101414.66;;;20.14;50.59
17649;BME280;8943;51.110;-4.158;2023-08-07T23:42:27;101422.47;;;20.17;50.58
17649;BME280;8943;51.110;-4.158;2023-08-07T23:44:56;101404.47;;;20.08;50.76
17649;BME280;8943;51.110;-4.158;2023-08-07T23:47:24;101401.22;;;20.04;50.84
17649;BME280;8943;51.110;-4.158;2023-08-07T23:50:16;101403.41;;;20.01;50.74
17649;BME280;8943;51.110;-4.158;2023-08-07T23:52:45;101404.41;;;20.00;50.90
17649;BME280;8943;51.110;-4.158;2023-08-07T23:55:14;101405.72;;;19.96;51.07
17649;BME280;8943;51.110;-4.158;2023-08-07T23:57:43;101402.88;;;19.97;51.26
